AAL400 TAPA-TGPY
Flight info
| Callsign | AAL400 |
|---|---|
| Flight time | 0h 53m |
| Altitude | 35000 |
| Route | ANU A312 FOF A324 GND |
| Aircraft | A321/M-SDE3FGHIRWY/LB1 |
Departure
| Time | 2026-05-05 21:49 |
|---|---|
| Airport | V. C. Bird International Airport (TAPA) |
Arrival
| Time | 2026-05-05 22:43 |
|---|---|
| Airport | Maurice Bishop International Airport (TGPY) |
| Time | Latitude | Longitude | Altitude | Speed | Heading |
|---|---|---|---|---|---|
| 2026-05-05 21:49 | 17.13870 | -61.74166 | 2778 ft | 182 kts | 175° |
| 2026-05-05 21:49 | 17.12629 | -61.74675 | 3085 ft | 205 kts | 221° |
| 2026-05-05 21:50 | 17.11881 | -61.76026 | 3411 ft | 223 kts | 244° |
| 2026-05-05 21:50 | 17.11013 | -61.77440 | 3700 ft | 235 kts | 218° |
| 2026-05-05 21:50 | 17.09480 | -61.78088 | 3962 ft | 245 kts | 178° |
| 2026-05-05 21:50 | 17.07839 | -61.77605 | 4396 ft | 251 kts | 145° |
| 2026-05-05 21:51 | 17.06374 | -61.76536 | 4916 ft | 262 kts | 146° |
| 2026-05-05 21:51 | 17.04732 | -61.75597 | 5571 ft | 269 kts | 153° |
| 2026-05-05 21:51 | 17.02978 | -61.74855 | 6252 ft | 274 kts | 159° |
| 2026-05-05 21:51 | 17.01144 | -61.74245 | 6914 ft | 278 kts | 162° |
| 2026-05-05 21:52 | 16.97323 | -61.73230 | 8154 ft | 288 kts | 165° |
| 2026-05-05 21:52 | 16.95357 | -61.72767 | 8775 ft | 291 kts | 166° |
| 2026-05-05 21:52 | 16.93362 | -61.72315 | 9406 ft | 295 kts | 166° |
| 2026-05-05 21:53 | 16.91342 | -61.71866 | 9995 ft | 299 kts | 167° |
| 2026-05-05 21:53 | 16.89292 | -61.71414 | 10495 ft | 305 kts | 167° |
| 2026-05-05 21:53 | 16.87146 | -61.70947 | 10760 ft | 321 kts | 167° |
| 2026-05-05 21:53 | 16.84893 | -61.70457 | 11024 ft | 335 kts | 167° |
| 2026-05-05 21:54 | 16.82546 | -61.69947 | 11271 ft | 350 kts | 167° |
| 2026-05-05 21:54 | 16.80106 | -61.69416 | 11594 ft | 360 kts | 167° |
| 2026-05-05 21:54 | 16.77614 | -61.68872 | 12124 ft | 364 kts | 167° |
| 2026-05-05 21:54 | 16.75122 | -61.68330 | 12684 ft | 366 kts | 167° |
| 2026-05-05 21:55 | 16.72618 | -61.67786 | 13202 ft | 369 kts | 167° |
| 2026-05-05 21:55 | 16.70110 | -61.67162 | 13719 ft | 371 kts | 164° |
| 2026-05-05 21:55 | 16.67584 | -61.66419 | 14210 ft | 375 kts | 163° |
| 2026-05-05 21:55 | 16.65037 | -61.65653 | 14673 ft | 379 kts | 163° |
| 2026-05-05 21:56 | 16.62474 | -61.64877 | 15129 ft | 384 kts | 163° |
| 2026-05-05 21:56 | 16.59877 | -61.64091 | 15594 ft | 388 kts | 163° |
| 2026-05-05 21:56 | 16.57251 | -61.63296 | 16053 ft | 392 kts | 163° |
| 2026-05-05 21:56 | 16.54605 | -61.62497 | 16512 ft | 396 kts | 163° |
| 2026-05-05 21:57 | 16.51934 | -61.61690 | 16958 ft | 400 kts | 163° |
| 2026-05-05 21:57 | 16.49228 | -61.60872 | 17418 ft | 403 kts | 163° |
| 2026-05-05 21:57 | 16.46500 | -61.60047 | 17874 ft | 407 kts | 163° |
| 2026-05-05 21:57 | 16.43764 | -61.59221 | 18330 ft | 409 kts | 163° |
| 2026-05-05 21:58 | 16.41020 | -61.58391 | 18813 ft | 410 kts | 163° |
| 2026-05-05 21:58 | 16.38266 | -61.57559 | 19264 ft | 411 kts | 163° |
| 2026-05-05 21:58 | 16.35505 | -61.56724 | 19706 ft | 412 kts | 163° |
| 2026-05-05 21:58 | 16.32726 | -61.55884 | 20151 ft | 413 kts | 163° |
| 2026-05-05 21:59 | 16.29945 | -61.55045 | 20569 ft | 415 kts | 163° |
| 2026-05-05 21:59 | 16.27155 | -61.54202 | 20964 ft | 417 kts | 163° |
| 2026-05-05 21:59 | 16.24370 | -61.53283 | 21365 ft | 418 kts | 161° |
| 2026-05-05 21:59 | 16.21590 | -61.52337 | 21759 ft | 419 kts | 161° |
| 2026-05-05 22:00 | 16.18809 | -61.51385 | 22120 ft | 420 kts | 161° |
| 2026-05-05 22:00 | 16.16018 | -61.50428 | 22474 ft | 422 kts | 161° |
| 2026-05-05 22:00 | 16.13217 | -61.49466 | 22830 ft | 423 kts | 161° |
| 2026-05-05 22:00 | 16.10413 | -61.48504 | 23166 ft | 425 kts | 161° |
| 2026-05-05 22:01 | 16.07575 | -61.47532 | 23490 ft | 426 kts | 161° |
| 2026-05-05 22:01 | 16.04731 | -61.46556 | 23807 ft | 428 kts | 161° |
| 2026-05-05 22:01 | 16.01858 | -61.45570 | 24119 ft | 430 kts | 161° |
| 2026-05-05 22:01 | 15.98980 | -61.44584 | 24422 ft | 432 kts | 161° |
| 2026-05-05 22:02 | 15.96120 | -61.43603 | 24713 ft | 433 kts | 161° |
| 2026-05-05 22:02 | 15.93246 | -61.42618 | 25005 ft | 435 kts | 161° |
| 2026-05-05 22:02 | 15.90353 | -61.41627 | 25303 ft | 436 kts | 161° |
| 2026-05-05 22:02 | 15.87449 | -61.40635 | 25592 ft | 437 kts | 161° |
| 2026-05-05 22:03 | 15.84544 | -61.39645 | 25859 ft | 439 kts | 161° |
| 2026-05-05 22:03 | 15.81603 | -61.38642 | 26104 ft | 441 kts | 161° |
| 2026-05-05 22:03 | 15.78671 | -61.37642 | 26355 ft | 443 kts | 161° |
| 2026-05-05 22:03 | 15.75731 | -61.36636 | 26613 ft | 444 kts | 161° |
| 2026-05-05 22:04 | 15.72777 | -61.35626 | 26868 ft | 446 kts | 161° |
| 2026-05-05 22:04 | 15.69814 | -61.34609 | 27120 ft | 447 kts | 161° |
| 2026-05-05 22:04 | 15.66848 | -61.33579 | 27345 ft | 449 kts | 161° |
| 2026-05-05 22:04 | 15.63871 | -61.32546 | 27582 ft | 451 kts | 161° |
| 2026-05-05 22:05 | 15.60886 | -61.31518 | 27835 ft | 452 kts | 161° |
| 2026-05-05 22:05 | 15.57882 | -61.30489 | 28062 ft | 453 kts | 161° |
| 2026-05-05 22:05 | 15.54859 | -61.29487 | 28282 ft | 455 kts | 163° |
| 2026-05-05 22:05 | 15.51791 | -61.28594 | 28499 ft | 456 kts | 164° |
| 2026-05-05 22:06 | 15.48717 | -61.27719 | 28713 ft | 458 kts | 165° |
| 2026-05-05 22:06 | 15.45612 | -61.26837 | 28952 ft | 458 kts | 165° |
| 2026-05-05 22:06 | 15.42503 | -61.25953 | 29243 ft | 458 kts | 164° |
| 2026-05-05 22:06 | 15.39405 | -61.25072 | 29534 ft | 458 kts | 164° |
| 2026-05-05 22:07 | 15.36327 | -61.24196 | 29819 ft | 457 kts | 164° |
| 2026-05-05 22:07 | 15.33245 | -61.23319 | 30081 ft | 458 kts | 164° |
| 2026-05-05 22:07 | 15.30165 | -61.22442 | 30335 ft | 458 kts | 164° |
| 2026-05-05 22:07 | 15.27087 | -61.21566 | 30592 ft | 458 kts | 164° |
| 2026-05-05 22:08 | 15.23991 | -61.20685 | 30848 ft | 458 kts | 164° |
| 2026-05-05 22:08 | 15.20909 | -61.19807 | 31096 ft | 459 kts | 164° |
| 2026-05-05 22:08 | 15.17780 | -61.18917 | 31354 ft | 459 kts | 164° |
| 2026-05-05 22:08 | 15.14672 | -61.18032 | 31613 ft | 459 kts | 164° |
| 2026-05-05 22:09 | 15.11585 | -61.17154 | 31878 ft | 459 kts | 164° |
| 2026-05-05 22:09 | 15.08482 | -61.16272 | 32127 ft | 459 kts | 164° |
| 2026-05-05 22:09 | 15.05380 | -61.15391 | 32382 ft | 459 kts | 164° |
| 2026-05-05 22:09 | 15.02268 | -61.14506 | 32632 ft | 460 kts | 164° |
| 2026-05-05 22:10 | 14.99165 | -61.13624 | 32933 ft | 459 kts | 164° |
| 2026-05-05 22:10 | 14.96070 | -61.12745 | 33281 ft | 458 kts | 164° |
| 2026-05-05 22:10 | 14.92987 | -61.11870 | 33600 ft | 457 kts | 164° |
| 2026-05-05 22:10 | 14.89908 | -61.10996 | 33869 ft | 458 kts | 164° |
| 2026-05-05 22:11 | 14.86815 | -61.10122 | 34093 ft | 459 kts | 164° |
| 2026-05-05 22:11 | 14.83721 | -61.09248 | 34304 ft | 460 kts | 164° |
| 2026-05-05 22:11 | 14.80624 | -61.08372 | 34522 ft | 460 kts | 164° |
| 2026-05-05 22:11 | 14.77505 | -61.07489 | 34740 ft | 461 kts | 164° |
| 2026-05-05 22:12 | 14.74398 | -61.06607 | 34962 ft | 461 kts | 164° |
| 2026-05-05 22:12 | 14.68161 | -61.04837 | 35005 ft | 462 kts | 164° |
| 2026-05-05 22:13 | 14.61907 | -61.03164 | 35009 ft | 463 kts | 167° |
| 2026-05-05 22:13 | 14.55509 | -61.02132 | 35010 ft | 463 kts | 174° |
| 2026-05-05 22:14 | 14.49052 | -61.01718 | 35005 ft | 463 kts | 176° |
| 2026-05-05 22:14 | 14.42597 | -61.01382 | 35002 ft | 463 kts | 176° |
| 2026-05-05 22:15 | 14.36148 | -61.01037 | 34996 ft | 462 kts | 176° |
| 2026-05-05 22:15 | 14.29699 | -61.00690 | 34994 ft | 463 kts | 176° |
| 2026-05-05 22:16 | 14.23244 | -61.00340 | 34994 ft | 463 kts | 176° |
| 2026-05-05 22:16 | 14.16798 | -60.99995 | 34996 ft | 463 kts | 176° |
| 2026-05-05 22:17 | 14.10331 | -60.99657 | 35000 ft | 463 kts | 176° |
| 2026-05-05 22:17 | 14.03861 | -60.99313 | 35006 ft | 463 kts | 176° |
| 2026-05-05 22:18 | 13.97395 | -60.98969 | 35007 ft | 463 kts | 176° |
| 2026-05-05 22:18 | 13.90935 | -60.98624 | 35000 ft | 463 kts | 176° |
| 2026-05-05 22:18 | 13.87699 | -60.98451 | 34704 ft | 462 kts | 176° |
| 2026-05-05 22:19 | 13.84441 | -60.98279 | 34407 ft | 460 kts | 176° |
| 2026-05-05 22:19 | 13.81214 | -60.98153 | 34110 ft | 458 kts | 179° |
| 2026-05-05 22:19 | 13.77988 | -60.98245 | 33819 ft | 456 kts | 183° |
| 2026-05-05 22:19 | 13.74799 | -60.98575 | 33528 ft | 457 kts | 187° |
| 2026-05-05 22:20 | 13.71657 | -60.99142 | 33238 ft | 458 kts | 191° |
| 2026-05-05 22:20 | 13.68557 | -60.99947 | 32952 ft | 459 kts | 195° |
| 2026-05-05 22:20 | 13.65500 | -61.00992 | 32666 ft | 460 kts | 200° |
| 2026-05-05 22:20 | 13.62509 | -61.02215 | 32402 ft | 461 kts | 201° |
| 2026-05-05 22:21 | 13.59531 | -61.03473 | 32152 ft | 462 kts | 202° |
| 2026-05-05 22:21 | 13.56549 | -61.04740 | 31898 ft | 462 kts | 202° |
| 2026-05-05 22:21 | 13.53575 | -61.06000 | 31647 ft | 462 kts | 202° |
| 2026-05-05 22:21 | 13.50582 | -61.07264 | 31397 ft | 462 kts | 202° |
| 2026-05-05 22:22 | 13.47599 | -61.08520 | 31147 ft | 462 kts | 202° |
| 2026-05-05 22:22 | 13.44615 | -61.09776 | 30856 ft | 463 kts | 202° |
| 2026-05-05 22:22 | 13.41627 | -61.11032 | 30405 ft | 463 kts | 202° |
| 2026-05-05 22:22 | 13.38633 | -61.12290 | 29835 ft | 463 kts | 202° |
| 2026-05-05 22:23 | 13.35649 | -61.13542 | 29205 ft | 462 kts | 202° |
| 2026-05-05 22:23 | 13.32660 | -61.14795 | 28578 ft | 463 kts | 202° |
| 2026-05-05 22:23 | 13.29679 | -61.16046 | 27990 ft | 459 kts | 202° |
| 2026-05-05 22:23 | 13.26734 | -61.17281 | 27562 ft | 453 kts | 202° |
| 2026-05-05 22:24 | 13.23799 | -61.18510 | 27073 ft | 448 kts | 202° |
| 2026-05-05 22:24 | 13.20917 | -61.19718 | 26570 ft | 444 kts | 202° |
| 2026-05-05 22:24 | 13.18049 | -61.20918 | 26047 ft | 441 kts | 202° |
| 2026-05-05 22:24 | 13.15209 | -61.22110 | 25525 ft | 437 kts | 203° |
| 2026-05-05 22:25 | 13.12443 | -61.23386 | 25017 ft | 433 kts | 205° |
| 2026-05-05 22:25 | 13.09711 | -61.24727 | 24511 ft | 430 kts | 206° |
| 2026-05-05 22:25 | 13.07005 | -61.26063 | 23997 ft | 427 kts | 206° |
| 2026-05-05 22:25 | 13.04331 | -61.27385 | 23489 ft | 424 kts | 206° |
| 2026-05-05 22:26 | 13.01671 | -61.28699 | 22991 ft | 421 kts | 206° |
| 2026-05-05 22:26 | 12.99045 | -61.29995 | 22496 ft | 418 kts | 206° |
| 2026-05-05 22:26 | 12.96425 | -61.31288 | 22024 ft | 415 kts | 206° |
| 2026-05-05 22:26 | 12.93821 | -61.32571 | 21519 ft | 413 kts | 206° |
| 2026-05-05 22:27 | 12.91224 | -61.33851 | 20993 ft | 412 kts | 205° |
| 2026-05-05 22:27 | 12.88620 | -61.35132 | 20453 ft | 412 kts | 205° |
| 2026-05-05 22:27 | 12.86015 | -61.36407 | 19912 ft | 412 kts | 205° |
| 2026-05-05 22:27 | 12.83416 | -61.37680 | 19370 ft | 411 kts | 205° |
| 2026-05-05 22:28 | 12.80830 | -61.38948 | 18827 ft | 411 kts | 205° |
| 2026-05-05 22:28 | 12.78226 | -61.40227 | 18286 ft | 410 kts | 205° |
| 2026-05-05 22:28 | 12.75633 | -61.41502 | 17752 ft | 409 kts | 205° |
| 2026-05-05 22:28 | 12.73056 | -61.42769 | 17218 ft | 408 kts | 205° |
| 2026-05-05 22:29 | 12.70489 | -61.44035 | 16685 ft | 407 kts | 205° |
| 2026-05-05 22:29 | 12.67930 | -61.45295 | 16160 ft | 405 kts | 205° |
| 2026-05-05 22:29 | 12.65391 | -61.46544 | 15637 ft | 403 kts | 204° |
| 2026-05-05 22:29 | 12.62853 | -61.47792 | 15134 ft | 401 kts | 204° |
| 2026-05-05 22:30 | 12.60321 | -61.49036 | 14621 ft | 400 kts | 204° |
| 2026-05-05 22:30 | 12.57810 | -61.50269 | 14111 ft | 398 kts | 204° |
| 2026-05-05 22:30 | 12.55306 | -61.51499 | 13595 ft | 396 kts | 203° |
| 2026-05-05 22:30 | 12.52812 | -61.52724 | 13084 ft | 395 kts | 203° |
| 2026-05-05 22:31 | 12.50328 | -61.53944 | 12576 ft | 393 kts | 203° |
| 2026-05-05 22:31 | 12.47857 | -61.55160 | 12078 ft | 391 kts | 204° |
| 2026-05-05 22:31 | 12.45529 | -61.56622 | 11585 ft | 392 kts | 215° |
| 2026-05-05 22:31 | 12.43510 | -61.58503 | 11110 ft | 391 kts | 225° |
| 2026-05-05 22:32 | 12.41695 | -61.60578 | 10633 ft | 389 kts | 227° |
| 2026-05-05 22:32 | 12.39937 | -61.62665 | 10349 ft | 380 kts | 227° |
| 2026-05-05 22:32 | 12.38238 | -61.64687 | 10233 ft | 366 kts | 227° |
| 2026-05-05 22:32 | 12.36603 | -61.66627 | 10123 ft | 353 kts | 227° |
| 2026-05-05 22:33 | 12.35024 | -61.68494 | 10023 ft | 340 kts | 227° |
| 2026-05-05 22:33 | 12.33487 | -61.70299 | 9768 ft | 334 kts | 226° |
| 2026-05-05 22:33 | 12.31967 | -61.72076 | 9481 ft | 329 kts | 226° |
| 2026-05-05 22:33 | 12.30465 | -61.73826 | 9186 ft | 324 kts | 226° |
| 2026-05-05 22:34 | 12.28972 | -61.75561 | 8898 ft | 320 kts | 226° |
| 2026-05-05 22:34 | 12.27511 | -61.77258 | 8610 ft | 315 kts | 226° |
| 2026-05-05 22:34 | 12.26072 | -61.78932 | 8332 ft | 311 kts | 226° |
| 2026-05-05 22:34 | 12.24639 | -61.80598 | 8047 ft | 306 kts | 226° |
| 2026-05-05 22:35 | 12.23240 | -61.82228 | 7779 ft | 302 kts | 226° |
| 2026-05-05 22:35 | 12.21861 | -61.83837 | 7511 ft | 297 kts | 226° |
| 2026-05-05 22:35 | 12.20501 | -61.85422 | 7237 ft | 294 kts | 226° |
| 2026-05-05 22:35 | 12.19139 | -61.87007 | 6902 ft | 292 kts | 226° |
| 2026-05-05 22:36 | 12.17800 | -61.88567 | 6575 ft | 290 kts | 226° |
| 2026-05-05 22:36 | 12.16469 | -61.90115 | 6266 ft | 289 kts | 226° |
| 2026-05-05 22:36 | 12.15142 | -61.91659 | 5954 ft | 288 kts | 226° |
| 2026-05-05 22:36 | 12.13821 | -61.93197 | 5623 ft | 287 kts | 226° |
| 2026-05-05 22:37 | 12.12501 | -61.94733 | 5281 ft | 286 kts | 226° |
| 2026-05-05 22:37 | 12.11150 | -61.96222 | 4957 ft | 282 kts | 217° |
| 2026-05-05 22:37 | 12.09404 | -61.97059 | 4598 ft | 270 kts | 183° |
| 2026-05-05 22:37 | 12.07546 | -61.97101 | 4361 ft | 262 kts | 174° |
| 2026-05-05 22:38 | 12.05741 | -61.97067 | 4024 ft | 254 kts | 174° |
| 2026-05-05 22:38 | 12.03977 | -61.97046 | 3800 ft | 250 kts | 175° |
| 2026-05-05 22:38 | 12.02254 | -61.97021 | 3603 ft | 243 kts | 170° |
| 2026-05-05 22:38 | 12.00733 | -61.96452 | 3363 ft | 227 kts | 134° |
| 2026-05-05 22:39 | 11.99998 | -61.95113 | 3102 ft | 217 kts | 95° |
| 2026-05-05 22:39 | 12.00102 | -61.93613 | 2992 ft | 207 kts | 83° |
| 2026-05-05 22:39 | 12.00270 | -61.92216 | 3040 ft | 184 kts | 85° |
| 2026-05-05 22:39 | 12.00365 | -61.90967 | 2743 ft | 171 kts | 87° |
| 2026-05-05 22:40 | 12.00414 | -61.89773 | 2392 ft | 164 kts | 89° |
| 2026-05-05 22:40 | 12.00438 | -61.88620 | 2052 ft | 160 kts | 89° |
| 2026-05-05 22:40 | 12.00449 | -61.87511 | 1753 ft | 152 kts | 89° |
| 2026-05-05 22:40 | 12.00454 | -61.86432 | 1394 ft | 148 kts | 90° |
| 2026-05-05 22:41 | 12.00457 | -61.85415 | 1129 ft | 138 kts | 90° |
| 2026-05-05 22:41 | 12.00456 | -61.84440 | 931 ft | 136 kts | 91° |
| 2026-05-05 22:41 | 12.00453 | -61.83468 | 746 ft | 136 kts | 91° |
| 2026-05-05 22:41 | 12.00450 | -61.82499 | 561 ft | 135 kts | 92° |
| 2026-05-05 22:42 | 12.00435 | -61.81536 | 377 ft | 135 kts | 94° |
| 2026-05-05 22:42 | 12.00418 | -61.80577 | 197 ft | 134 kts | 93° |
| 2026-05-05 22:42 | 12.00409 | -61.79623 | 54 ft | 134 kts | 93° |
| 2026-05-05 22:42 | 12.00406 | -61.78746 | 43 ft | 106 kts | 91° |
| 2026-05-05 22:43 | 12.00402 | -61.78310 | 38 ft | 23 kts | 101° |
| 2026-05-05 22:43 | 12.00417 | -61.78265 | 38 ft | 4 kts | 254° |
| 2026-05-05 22:43 | 12.00409 | -61.78314 | 38 ft | 9 kts | 264° |
| 2026-05-05 22:43 | 12.00408 | -61.78395 | 39 ft | 14 kts | 270° |
| 2026-05-05 22:44 | 12.00410 | -61.78502 | 40 ft | 16 kts | 271° |
| 2026-05-05 22:44 | 12.00440 | -61.78578 | 41 ft | 0 kts | 21° |
| 2026-05-05 22:44 | 12.00478 | -61.78589 | 41 ft | 8 kts | 344° |
| 2026-05-05 22:44 | 12.00541 | -61.78588 | 42 ft | 9 kts | 22° |
| 2026-05-05 22:45 | 12.00587 | -61.78544 | 41 ft | 9 kts | 46° |
| 2026-05-05 22:45 | 12.00628 | -61.78531 | 41 ft | 6 kts | 353° |
| 2026-05-05 22:45 | 12.00650 | -61.78532 | 41 ft | 0 kts | 0° |